Time;durP1;ratioP1;P1;durP2;ratioP2;P2;SDS_P1;SDS_P2;PMS_P1;PMS_P2;Temp;Humidity;BMP_temperature;BMP_pressure;BME280_temperature;BME280_humidity;BME280_pressure;Samples;Min_cycle;Max_cycle;Signal;HPM_P1;HPM_P2
2023/10/06 00:00:18;;;;;;;26.90;18.15;;;;;;;12.11;100.00;101725.09;5013919;28;20057;-59
2023/10/06 00:02:46;;;;;;;19.42;16.50;;;;;;;12.06;100.00;101721.78;5007613;28;20097;-56
2023/10/06 00:05:13;;;;;;;23.58;16.25;;;;;;;12.11;100.00;101738.28;5007164;28;20112;-57
2023/10/06 00:07:40;;;;;;;21.60;16.40;;;;;;;12.08;100.00;101727.00;5009437;28;20085;-58
2023/10/06 00:10:16;;;;;;;19.02;17.02;;;;;;;12.09;100.00;101726.94;4990021;28;20559;-59
2023/10/06 00:12:47;;;;;;;;;;;;;;;12.09;100.00;101719.00;4970623;28;20045;-54
2023/10/06 00:15:23;;;;;;;17.85;14.68;;;;;;;12.12;100.00;101716.22;5008645;28;19925;-58
2023/10/06 00:17:51;;;;;;;20.77;16.42;;;;;;;12.08;100.00;101713.81;5005246;28;20058;-58
2023/10/06 00:20:26;;;;;;;20.17;15.95;;;;;;;12.01;100.00;101721.16;5013868;28;20054;-60
2023/10/06 00:23:02;;;;;;;18.70;15.27;;;;;;;12.06;100.00;101713.00;5013223;28;20588;-61
2023/10/06 00:25:31;;;;;;;18.48;14.88;;;;;;;12.05;100.00;101722.72;4992631;28;20065;-61
2023/10/06 00:28:00;;;;;;;23.98;16.10;;;;;;;12.04;100.00;101720.16;5007582;28;20081;-60
2023/10/06 00:30:27;;;;;;;20.50;15.75;;;;;;;12.04;100.00;101706.97;5010889;28;20455;-61
2023/10/06 00:32:56;;;;;;;18.85;15.48;;;;;;;12.02;100.00;101711.44;4992520;28;20053;-57
2023/10/06 00:35:29;;;;;;;23.45;17.10;;;;;;;12.02;100.00;101706.16;5008310;28;20057;-57
2023/10/06 00:38:12;;;;;;;20.27;14.23;;;;;;;12.06;100.00;101726.22;5006217;28;20453;-58
2023/10/06 00:40:44;;;;;;;22.48;15.55;;;;;;;12.04;100.00;101707.81;4989610;28;20057;-61
2023/10/06 00:43:16;;;;;;;21.67;15.05;;;;;;;12.08;100.00;101713.81;5004819;28;20093;-54
2023/10/06 00:45:44;;;;;;;23.02;15.93;;;;;;;12.09;100.00;101718.16;4991508;28;20049;-59
2023/10/06 00:48:14;;;;;;;19.23;14.77;;;;;;;12.09;100.00;101716.38;5008781;28;20197;-57
2023/10/06 00:50:43;;;;;;;17.52;14.43;;;;;;;12.13;100.00;101712.66;4989644;28;20058;-59
2023/10/06 00:53:13;;;;;;;19.33;14.68;;;;;;;12.11;100.00;101714.53;5012385;28;20077;-62
2023/10/06 00:55:44;;;;;;;15.35;13.73;;;;;;;12.14;100.00;101706.44;5013451;28;20092;-60
2023/10/06 00:58:11;;;;;;;16.50;13.43;;;;;;;12.20;100.00;101707.91;5008955;28;20041;-59
2023/10/06 01:00:38;;;;;;;22.25;15.18;;;;;;;12.21;100.00;101703.53;4992714;28;20468;-59
2023/10/06 01:03:14;;;;;;;16.67;13.98;;;;;;;12.24;100.00;101692.78;5006117;28;20137;-55
2023/10/06 01:05:45;;;;;;;14.90;13.27;;;;;;;12.24;100.00;101688.38;5003279;28;20128;-56
2023/10/06 01:08:15;;;;;;;21.88;15.15;;;;;;;12.23;100.00;101691.09;5012339;28;20133;-59
2023/10/06 01:10:43;;;;;;;20.42;13.75;;;;;;;12.24;100.00;101690.16;5003267;28;20143;-57
2023/10/06 01:13:14;;;;;;;19.85;14.35;;;;;;;12.29;100.00;101690.78;5010776;28;20080;-60
2023/10/06 01:15:56;;;;;;;20.95;14.15;;;;;;;12.31;100.00;101688.94;5011215;28;20104;-58
2023/10/06 01:18:25;;;;;;;18.95;12.70;;;;;;;12.36;100.00;101686.91;5007953;28;20124;-60
2023/10/06 01:20:52;;;;;;;16.92;13.48;;;;;;;12.38;100.00;101690.31;5005134;28;20122;-57
2023/10/06 01:23:27;;;;;;;21.73;14.27;;;;;;;12.38;100.00;101696.50;4997497;28;20112;-59
2023/10/06 01:25:55;;;;;;;20.33;16.53;;;;;;;12.37;100.00;101699.19;5008845;28;20538;-57
2023/10/06 01:28:25;;;;;;;18.15;14.40;;;;;;;12.41;100.00;101700.75;5005521;28;20141;-57
2023/10/06 01:30:53;;;;;;;19.88;14.52;;;;;;;12.46;100.00;101698.72;5002517;28;20108;-59
2023/10/06 01:33:21;;;;;;;21.20;16.05;;;;;;;12.49;100.00;101692.44;5009439;28;20084;-58
2023/10/06 01:35:49;;;;;;;25.15;17.45;;;;;;;12.51;100.00;101698.50;5001730;28;21431;-58
2023/10/06 01:38:22;;;;;;;23.58;18.20;;;;;;;12.51;100.00;101702.00;5007133;28;20049;-59
2023/10/06 01:40:54;;;;;;;26.42;17.20;;;;;;;12.50;100.00;101705.56;4989888;28;20113;-58
2023/10/06 01:43:29;;;;;;;23.42;16.58;;;;;;;12.52;100.00;101708.13;5007958;28;20077;-58
2023/10/06 01:45:59;;;;;;;;;;;;;;;12.44;100.00;101705.03;5005925;28;20133;-58
2023/10/06 01:48:33;;;;;;;21.08;16.20;;;;;;;12.48;100.00;101706.59;5006186;28;19963;-59
2023/10/06 01:51:01;;;;;;;19.63;15.68;;;;;;;12.51;100.00;101709.91;5002972;28;20100;-60
2023/10/06 01:53:32;;;;;;;20.08;15.30;;;;;;;12.51;100.00;101711.69;5007002;28;20228;-57
2023/10/06 01:56:02;;;;;;;19.33;15.35;;;;;;;12.48;100.00;101710.09;5008474;28;20049;-56
2023/10/06 01:58:30;;;;;;;18.55;15.30;;;;;;;12.38;100.00;101706.16;5008386;28;20099;-59
2023/10/06 02:00:58;;;;;;;20.67;15.88;;;;;;;12.37;100.00;101710.59;5007026;28;20104;-60
2023/10/06 02:03:26;;;;;;;17.38;14.88;;;;;;;12.39;100.00;101707.91;5006638;28;20054;-60
2023/10/06 02:05:54;;;;;;;19.05;15.13;;;;;;;12.41;100.00;101704.25;5005487;28;20080;-60
2023/10/06 02:08:23;;;;;;;17.55;14.73;;;;;;;12.43;100.00;101712.09;5008125;28;20150;-62
2023/10/06 02:10:50;;;;;;;21.27;15.93;;;;;;;12.33;100.00;101705.53;5001543;28;20050;-61
2023/10/06 02:13:21;;;;;;;20.83;15.55;;;;;;;12.32;100.00;101709.97;4992769;28;20076;-60
2023/10/06 02:15:58;;;;;;;17.83;15.73;;;;;;;12.27;100.00;101709.34;5004754;28;20092;-58
2023/10/06 02:18:36;;;;;;;22.15;15.95;;;;;;;12.24;100.00;101711.28;5000327;28;20050;-59
2023/10/06 02:21:11;;;;;;;20.95;16.15;;;;;;;12.24;100.00;101706.84;4987667;28;20409;-60
2023/10/06 02:23:40;;;;;;;17.55;15.65;;;;;;;12.26;100.00;101696.22;5005044;28;20528;-59
2023/10/06 02:26:13;;;;;;;18.67;15.27;;;;;;;12.27;100.00;101693.50;5002927;28;20109;-60
2023/10/06 02:28:48;;;;;;;19.13;13.85;;;;;;;12.29;100.00;101693.41;5010261;28;20695;-55
2023/10/06 02:31:21;;;;;;;23.83;15.95;;;;;;;12.31;100.00;101694.22;5011093;28;20571;-58
2023/10/06 02:33:51;;;;;;;21.60;16.63;;;;;;;12.31;100.00;101694.22;5005919;28;20120;-58
2023/10/06 02:36:21;;;;;;;24.30;16.52;;;;;;;12.33;100.00;101694.97;5004822;28;20125;-60
2023/10/06 02:38:50;;;;;;;20.85;16.00;;;;;;;12.36;100.00;101692.19;5004156;28;20081;-59
2023/10/06 02:41:19;;;;;;;19.15;15.93;;;;;;;12.39;100.00;101706.13;5008005;28;20082;-59
2023/10/06 02:43:51;;;;;;;21.98;16.80;;;;;;;12.41;100.00;101708.66;5005615;28;20584;-58
2023/10/06 02:46:25;;;;;;;23.90;16.63;;;;;;;12.41;100.00;101706.88;5008188;28;20085;-60
2023/10/06 02:48:53;;;;;;;20.92;16.85;;;;;;;12.45;100.00;101709.38;5002466;28;20175;-55
2023/10/06 02:51:47;;;;;;;23.52;17.60;;;;;;;12.49;100.00;101708.31;4986739;28;20061;-59
2023/10/06 02:56:46;;;;;;;23.30;17.15;;;;;;;12.57;100.00;101712.28;4983980;28;20042;-59
2023/10/06 02:59:24;;;;;;;28.45;17.55;;;;;;;12.59;100.00;101715.69;4992723;28;20420;-57
2023/10/06 03:01:56;;;;;;;25.13;20.30;;;;;;;12.56;100.00;101702.66;5006862;28;20119;-58
2023/10/06 03:04:28;;;;;;;25.10;18.83;;;;;;;12.64;100.00;101705.72;4997939;28;20058;-58
2023/10/06 03:06:58;;;;;;;27.98;19.23;;;;;;;12.67;100.00;101705.59;4968143;28;20082;-58
2023/10/06 03:09:43;;;;;;;25.58;20.90;;;;;;;12.66;100.00;101701.25;5010692;28;20088;-59
2023/10/06 03:12:31;;;;;;;24.77;18.85;;;;;;;12.73;100.00;101687.72;5008741;28;20054;-59
2023/10/06 03:14:59;;;;;;;25.38;20.30;;;;;;;12.74;100.00;101692.06;5012527;28;20543;-59
2023/10/06 03:17:26;;;;;;;24.17;19.38;;;;;;;12.77;100.00;101694.56;5013748;28;20054;-60
2023/10/06 03:20:18;;;;;;;26.15;18.70;;;;;;;12.84;100.00;101694.16;5008438;28;20074;-61
2023/10/06 03:22:48;;;;;;;25.70;20.02;;;;;;;12.85;100.00;101693.22;5008566;28;20787;-58
2023/10/06 03:25:19;;;;;;;25.33;19.70;;;;;;;12.81;100.00;101683.75;5007527;28;20050;-60
2023/10/06 03:27:52;;;;;;;22.90;18.73;;;;;;;12.83;100.00;101686.28;5009073;28;20057;-57
2023/10/06 03:30:33;;;;;;;24.83;20.33;;;;;;;12.86;100.00;101676.44;5007713;28;20070;-59
2023/10/06 03:33:11;;;;;;;21.30;18.50;;;;;;;12.89;100.00;101667.50;5009442;28;20100;-59
2023/10/06 03:35:45;;;;;;;27.55;18.67;;;;;;;12.90;100.00;101658.63;5006680;28;20042;-57
2023/10/06 03:46:08;;;;;;;26.13;20.80;;;;;;;12.84;100.00;101674.81;5010791;28;20088;-59
2023/10/06 03:48:38;;;;;;;29.10;21.75;;;;;;;12.81;100.00;101677.59;4989890;28;20081;-59
2023/10/06 03:51:09;;;;;;;27.80;21.67;;;;;;;12.85;100.00;101679.16;5004734;28;20066;-58
2023/10/06 03:53:36;;;;;;;25.02;19.35;;;;;;;12.88;100.00;101682.50;5009686;28;20070;-60
2023/10/06 03:56:06;;;;;;;27.20;20.05;;;;;;;12.88;100.00;101674.59;4993648;28;20077;-62
2023/10/06 03:58:34;;;;;;;24.58;20.02;;;;;;;12.89;100.00;101673.63;5012757;28;20113;-57
2023/10/06 04:01:09;;;;;;;22.17;19.70;;;;;;;12.89;100.00;101672.78;5007293;28;20132;-59
2023/10/06 04:03:36;;;;;;;22.70;20.33;;;;;;;12.88;100.00;101668.44;5007449;28;20796;-60
2023/10/06 04:06:05;;;;;;;25.30;19.17;;;;;;;12.92;100.00;101673.50;5004425;28;20561;-59
2023/10/06 04:08:32;;;;;;;22.95;20.10;;;;;;;12.92;100.00;101672.59;5008814;28;20054;-58
2023/10/06 04:10:59;;;;;;;25.63;19.85;;;;;;;12.91;100.00;101673.56;5005327;28;20077;-59
2023/10/06 04:13:28;;;;;;;21.50;19.13;;;;;;;12.96;100.00;101675.94;5003688;28;20120;-57
2023/10/06 04:15:57;;;;;;;27.17;22.05;;;;;;;12.96;100.00;101678.59;5009032;28;20153;-58
2023/10/06 04:18:24;;;;;;;27.30;20.50;;;;;;;12.95;100.00;101675.09;5007957;28;20081;-60
2023/10/06 04:20:53;;;;;;;27.67;19.92;;;;;;;12.93;100.00;101671.69;5003302;28;20053;-55
2023/10/06 04:23:24;;;;;;;26.35;22.23;;;;;;;12.91;100.00;101668.25;5006133;28;20084;-58
2023/10/06 04:25:55;;;;;;;28.80;22.35;;;;;;;12.88;100.00;101673.72;5001304;28;20145;-59
2023/10/06 04:28:25;;;;;;;25.10;21.23;;;;;;;12.89;100.00;101670.16;5004211;28;20109;-59
2023/10/06 04:30:54;;;;;;;24.08;21.58;;;;;;;12.89;100.00;101680.72;4988197;28;21327;-59
2023/10/06 04:33:25;;;;;;;26.60;22.77;;;;;;;12.90;100.00;101672.69;5010410;28;20432;-60
2023/10/06 04:36:20;;;;;;;28.75;21.95;;;;;;;12.92;100.00;101670.84;4984332;28;20133;-57
2023/10/06 04:38:51;;;;;;;31.60;21.75;;;;;;;12.92;100.00;101665.56;5002867;28;20419;-58
2023/10/06 04:41:20;;;;;;;27.38;21.75;;;;;;;12.93;100.00;101669.91;4984117;28;20137;-59
2023/10/06 04:43:48;;;;;;;30.08;22.33;;;;;;;12.93;100.00;101664.63;5006688;28;20583;-58
2023/10/06 04:46:19;;;;;;;27.00;22.08;;;;;;;12.92;100.00;101677.88;4987910;28;20054;-57
2023/10/06 04:48:48;;;;;;;27.92;21.67;;;;;;;12.88;100.00;101669.28;4975702;28;20393;-60
2023/10/06 04:51:16;;;;;;;26.15;21.92;;;;;;;12.84;100.00;101669.53;4992891;28;20086;-58
2023/10/06 04:53:45;;;;;;;28.80;24.58;;;;;;;12.77;100.00;101662.84;5008276;28;20119;-59
2023/10/06 04:56:14;;;;;;;30.98;24.83;;;;;;;12.73;100.00;101661.28;5004228;28;20129;-60
2023/10/06 04:58:42;;;;;;;26.67;23.00;;;;;;;12.77;100.00;101660.19;4966786;28;20062;-57
2023/10/06 05:01:11;;;;;;;35.78;25.38;;;;;;;12.80;100.00;101667.97;5007596;28;20140;-59
2023/10/06 05:03:45;;;;;;;36.40;27.20;;;;;;;12.79;100.00;101664.50;4993230;28;20073;-58
2023/10/06 05:06:21;;;;;;;30.52;26.77;;;;;;;12.74;100.00;101668.28;4997668;28;20053;-58
2023/10/06 05:08:48;;;;;;;36.50;27.83;;;;;;;12.56;100.00;101657.75;5011206;28;20038;-59
2023/10/06 05:11:19;;;;;;;39.58;28.88;;;;;;;12.57;100.00;101650.66;5005275;28;20112;-57
2023/10/06 05:13:52;;;;;;;39.00;29.27;;;;;;;12.56;100.00;101648.94;4998385;28;20496;-58
2023/10/06 05:16:22;;;;;;;39.72;29.42;;;;;;;12.51;100.00;101662.38;4996080;28;20596;-59
2023/10/06 05:18:51;;;;;;;34.40;29.25;;;;;;;12.53;100.00;101673.72;5011310;28;20073;-58
2023/10/06 05:21:20;;;;;;;37.65;29.20;;;;;;;12.57;100.00;101677.94;5006006;28;20045;-57
2023/10/06 05:23:47;;;;;;;51.20;33.60;;;;;;;12.54;100.00;101671.94;4991496;28;20049;-59
2023/10/06 05:26:15;;;;;;;42.33;30.67;;;;;;;12.53;100.00;101678.16;5007320;28;20145;-58
2023/10/06 05:28:43;;;;;;;43.78;31.88;;;;;;;12.49;100.00;101666.91;4993688;28;20084;-58
2023/10/06 05:31:12;;;;;;;40.17;33.75;;;;;;;12.51;100.00;101670.28;5007763;28;20054;-57
2023/10/06 05:33:41;;;;;;;38.00;30.02;;;;;;;12.56;100.00;101672.72;4996552;28;20189;-57
2023/10/06 05:36:12;;;;;;;38.13;31.63;;;;;;;12.60;100.00;101666.34;4994656;28;20045;-53
2023/10/06 05:38:45;;;;;;;41.88;30.90;;;;;;;12.65;100.00;101672.25;5014414;28;20137;-57
2023/10/06 05:41:15;;;;;;;39.10;29.75;;;;;;;12.68;100.00;101667.66;4993973;28;20099;-58
2023/10/06 05:43:43;;;;;;;32.63;29.05;;;;;;;12.68;100.00;101670.31;4984628;28;20053;-58
2023/10/06 05:46:16;;;;;;;38.25;28.88;;;;;;;12.66;100.00;101668.69;5001944;28;20113;-59
2023/10/06 05:48:46;;;;;;;35.60;29.30;;;;;;;12.70;100.00;101670.25;4982998;28;20112;-56
2023/10/06 05:51:21;;;;;;;32.40;27.92;;;;;;;12.60;100.00;101675.13;4997877;28;20038;-56
2023/10/06 05:53:49;;;;;;;38.93;29.33;;;;;;;12.61;100.00;101668.06;4990746;28;20053;-60
2023/10/06 05:56:18;;;;;;;34.55;28.05;;;;;;;12.55;100.00;101666.56;5004180;28;20074;-60
2023/10/06 05:58:45;;;;;;;39.33;29.17;;;;;;;12.54;100.00;101671.94;5010535;28;20057;-58
2023/10/06 06:01:14;;;;;;;35.38;26.40;;;;;;;12.54;100.00;101667.50;4969756;28;20055;-58
2023/10/06 06:03:49;;;;;;;46.65;27.05;;;;;;;12.57;100.00;101666.50;4976421;28;20050;-57
2023/10/06 06:06:22;;;;;;;32.92;26.55;;;;;;;12.60;100.00;101669.84;5006996;28;20267;-56
2023/10/06 06:08:51;;;;;;;36.88;27.10;;;;;;;12.67;100.00;101681.81;5006406;28;20084;-59
2023/10/06 06:11:20;;;;;;;33.28;26.27;;;;;;;12.71;100.00;101681.66;4996998;28;20260;-59
2023/10/06 06:13:47;;;;;;;34.15;25.73;;;;;;;12.62;100.00;101689.13;5004793;28;20077;-59
2023/10/06 06:16:33;;;;;;;33.60;25.88;;;;;;;12.67;100.00;101679.16;4996372;28;20088;-60
2023/10/06 06:19:01;;;;;;;43.22;25.85;;;;;;;12.74;100.00;101678.84;5009111;28;20149;-56
2023/10/06 06:21:29;;;;;;;33.80;24.27;;;;;;;12.84;100.00;101672.19;5007515;28;20092;-54
2023/10/06 06:23:57;;;;;;;27.88;22.20;;;;;;;12.92;100.00;101673.50;4993610;28;20084;-61
2023/10/06 06:26:26;;;;;;;31.30;22.95;;;;;;;13.02;100.00;101673.84;4994746;28;20137;-58
2023/10/06 06:28:54;;;;;;;32.88;23.92;;;;;;;12.97;100.00;101665.31;5009711;28;20033;-60
2023/10/06 06:31:22;;;;;;;30.77;22.80;;;;;;;13.11;100.00;101649.59;5012596;28;20076;-58
2023/10/06 06:33:56;;;;;;;25.27;19.92;;;;;;;13.21;100.00;101659.66;5013618;28;20078;-59
2023/10/06 06:36:26;;;;;;;28.30;19.98;;;;;;;13.32;100.00;101657.31;5008947;28;20566;-60
2023/10/06 06:38:54;;;;;;;24.17;18.15;;;;;;;13.48;100.00;101668.78;5003483;28;20062;-58
2023/10/06 06:41:21;;;;;;;28.33;18.52;;;;;;;13.51;100.00;101668.63;4985977;28;20631;-60
2023/10/06 06:43:49;;;;;;;27.63;17.90;;;;;;;13.39;100.00;101664.84;5008406;28;20097;-59
2023/10/06 06:46:17;;;;;;;34.28;19.80;;;;;;;13.38;100.00;101676.38;5004365;28;20125;-58
2023/10/06 06:48:46;;;;;;;25.83;18.50;;;;;;;13.27;100.00;101680.50;5010717;28;20144;-59
2023/10/06 06:51:14;;;;;;;29.23;18.48;;;;;;;13.26;100.00;101681.47;4986039;28;20511;-60
2023/10/06 06:53:41;;;;;;;26.25;18.08;;;;;;;13.32;100.00;101666.09;5004696;28;20145;-60
2023/10/06 06:56:10;;;;;;;33.90;20.80;;;;;;;13.38;100.00;101639.34;5001188;28;20598;-59
2023/10/06 06:58:38;;;;;;;23.65;17.73;;;;;;;13.45;100.00;101637.19;4999599;28;20120;-63
2023/10/06 07:01:14;;;;;;;25.48;16.38;;;;;;;13.59;100.00;101654.97;5005212;28;20074;-59
2023/10/06 07:03:42;;;;;;;23.05;16.48;;;;;;;13.64;100.00;101674.06;5006055;28;20169;-61
2023/10/06 07:06:16;;;;;;;24.80;17.30;;;;;;;13.64;100.00;101672.31;4991077;28;20159;-59
2023/10/06 07:08:47;;;;;;;20.13;15.27;;;;;;;13.76;100.00;101669.91;4981792;28;20085;-60
2023/10/06 07:11:15;;;;;;;32.80;16.92;;;;;;;13.81;100.00;101676.66;4998335;28;20161;-60
2023/10/06 07:13:45;;;;;;;26.88;16.48;;;;;;;13.64;100.00;101667.03;4999047;28;20086;-56
2023/10/06 07:16:14;;;;;;;28.70;16.17;;;;;;;13.71;100.00;101662.22;5003135;28;20140;-61
2023/10/06 07:18:42;;;;;;;25.83;16.55;;;;;;;13.74;100.00;101664.72;5002945;28;20046;-58
2023/10/06 07:21:10;;;;;;;19.70;14.68;;;;;;;13.86;100.00;101657.88;4999110;28;20502;-60
2023/10/06 07:23:40;;;;;;;25.00;14.43;;;;;;;13.94;100.00;101661.78;5006163;28;20129;-60
2023/10/06 07:26:11;;;;;;;26.60;15.27;;;;;;;13.98;100.00;101661.63;5010490;28;20069;-60
2023/10/06 07:28:42;;;;;;;19.42;13.57;;;;;;;13.99;100.00;101658.03;5009643;28;20112;-59
2023/10/06 07:31:12;;;;;;;22.63;13.52;;;;;;;14.02;100.00;101663.16;5007279;28;20049;-58
2023/10/06 07:33:43;;;;;;;20.98;13.93;;;;;;;14.03;100.00;101659.56;5002902;28;20131;-59
2023/10/06 07:36:17;;;;;;;22.25;14.20;;;;;;;14.06;100.00;101646.16;5003732;28;20093;-58
2023/10/06 07:38:48;;;;;;;21.77;14.52;;;;;;;14.13;100.00;101634.25;4995095;28;20061;-59
2023/10/06 07:41:25;;;;;;;32.17;13.70;;;;;;;14.29;100.00;101647.47;5001083;28;20081;-54
2023/10/06 07:43:52;;;;;;;21.02;13.60;;;;;;;14.33;100.00;101651.66;5001527;28;20141;-59
2023/10/06 07:46:20;;;;;;;24.92;12.73;;;;;;;14.12;100.00;101640.50;5007440;28;20125;-59
2023/10/06 07:48:50;;;;;;;20.17;13.38;;;;;;;14.26;100.00;101639.69;4995870;28;20137;-59
2023/10/06 07:51:17;;;;;;;20.88;12.88;;;;;;;14.32;100.00;101637.56;4999237;28;20439;-60
2023/10/06 07:53:45;;;;;;;22.40;13.00;;;;;;;14.39;100.00;101646.84;4980816;28;20164;-60
2023/10/06 07:56:14;;;;;;;23.38;13.63;;;;;;;14.36;100.00;101656.75;4995757;28;20495;-58
2023/10/06 07:58:41;;;;;;;23.73;12.35;;;;;;;14.38;100.00;101647.78;4982010;28;20086;-58
2023/10/06 08:01:12;;;;;;;20.77;12.35;;;;;;;14.45;100.00;101642.97;5001260;28;20136;-57
2023/10/06 08:03:41;;;;;;;24.48;12.93;;;;;;;14.52;100.00;101641.72;5004185;28;20064;-59
2023/10/06 08:06:10;;;;;;;18.67;11.32;;;;;;;14.65;100.00;101633.88;4996480;28;20065;-58
2023/10/06 08:08:38;;;;;;;17.55;10.20;;;;;;;14.69;100.00;101632.75;4993727;28;20133;-60
2023/10/06 08:11:06;;;;;;;16.25;10.23;;;;;;;14.72;100.00;101637.84;4995163;28;20179;-58
2023/10/06 08:13:33;;;;;;;14.52;9.63;;;;;;;14.97;100.00;101629.28;4961364;28;20535;-59
2023/10/06 08:17:15;;;;;;;13.00;10.68;;;;;;;15.02;100.00;101627.19;4999183;28;20524;-59
2023/10/06 08:20:32;;;;;;;16.98;10.00;;;;;;;14.97;100.00;101621.31;4999336;28;20048;-58
2023/10/06 08:23:00;;;;;;;13.85;8.15;;;;;;;14.92;100.00;101626.91;5000305;28;20088;-59
2023/10/06 08:25:27;;;;;;;16.98;9.23;;;;;;;14.89;100.00;101634.19;5012649;28;20058;-59
2023/10/06 08:27:58;;;;;;;15.85;8.80;;;;;;;14.74;100.00;101619.22;4999814;28;20056;-58
2023/10/06 08:30:27;;;;;;;21.42;9.85;;;;;;;14.85;100.00;101614.13;4995421;28;20162;-59
2023/10/06 08:32:54;;;;;;;18.73;9.82;;;;;;;14.93;100.00;101596.78;5000341;28;20136;-58
2023/10/06 08:35:22;;;;;;;12.52;9.23;;;;;;;15.28;100.00;101603.50;5001778;28;20065;-59
2023/10/06 08:37:56;;;;;;;17.90;8.20;;;;;;;15.61;100.00;101600.50;4995826;28;20185;-57
2023/10/06 08:40:23;;;;;;;16.67;8.18;;;;;;;15.86;99.09;101605.97;4990802;28;20057;-59
2023/10/06 08:42:52;;;;;;;19.88;9.27;;;;;;;15.32;99.25;101591.75;4980426;28;20061;-56
2023/10/06 08:45:22;;;;;;;19.02;8.10;;;;;;;15.35;100.00;101591.53;5001763;28;20050;-57
2023/10/06 08:47:50;;;;;;;16.38;7.82;;;;;;;15.41;100.00;101588.53;4995685;28;20463;-58
2023/10/06 08:50:29;;;;;;;20.98;7.88;;;;;;;15.64;99.75;101595.88;4997853;28;20500;-58
2023/10/06 08:52:58;;;;;;;14.35;6.90;;;;;;;15.76;98.80;101585.41;5000079;28;20061;-59
2023/10/06 08:55:29;;;;;;;18.05;6.82;;;;;;;16.14;96.51;101589.03;5004379;28;20157;-58
2023/10/06 08:57:58;;;;;;;19.83;7.63;;;;;;;16.17;95.22;101588.00;5004363;28;20137;-58
2023/10/06 09:00:34;;;;;;;11.32;6.60;;;;;;;16.03;95.74;101583.59;5005445;28;20789;-58
2023/10/06 09:03:07;;;;;;;9.10;6.25;;;;;;;15.83;96.88;101587.56;5001286;28;20053;-58
2023/10/06 09:05:38;;;;;;;15.68;7.43;;;;;;;15.95;98.06;101580.59;4998525;28;20973;-59
2023/10/06 09:08:08;;;;;;;16.48;7.30;;;;;;;16.09;97.17;101585.00;4999110;28;20149;-58
2023/10/06 09:10:37;;;;;;;17.67;6.85;;;;;;;16.27;95.96;101586.41;4997328;28;20069;-58
2023/10/06 09:13:07;;;;;;;12.43;6.38;;;;;;;16.33;96.51;101593.97;5000180;28;20119;-59
2023/10/06 09:15:39;;;;;;;14.18;7.20;;;;;;;16.40;95.16;101584.63;4984701;28;20084;-58
2023/10/06 09:18:20;;;;;;;13.90;6.55;;;;;;;16.32;95.18;101591.41;4999594;28;20129;-58
2023/10/06 09:20:48;;;;;;;14.27;6.65;;;;;;;16.40;96.07;101576.66;4997546;28;20050;-58
2023/10/06 09:23:43;;;;;;;16.67;7.13;;;;;;;16.31;95.80;101585.25;4999446;28;20550;-58
2023/10/06 09:26:19;;;;;;;13.63;6.60;;;;;;;16.50;95.27;101562.75;5000996;28;20775;-59
2023/10/06 09:28:52;;;;;;;;;;;;;;;16.84;93.31;101580.75;5002546;28;20092;-58
2023/10/06 09:31:46;;;;;;;13.32;6.07;;;;;;;17.00;92.52;101575.19;4969580;28;20020;-59
2023/10/06 09:34:23;;;;;;;10.23;5.40;;;;;;;16.98;89.58;101581.59;5003771;28;20057;-61
2023/10/06 09:36:51;;;;;;;10.48;4.70;;;;;;;17.25;90.02;101570.78;5006992;28;20264;-60
2023/10/06 09:39:32;;;;;;;11.73;5.05;;;;;;;17.14;86.64;101569.72;5001873;28;20136;-59
2023/10/06 09:42:01;;;;;;;15.82;5.88;;;;;;;17.11;87.10;101558.44;4999760;28;20148;-59
2023/10/06 09:44:29;;;;;;;7.50;4.50;;;;;;;17.23;86.19;101554.06;5005384;28;20058;-59
2023/10/06 09:47:00;;;;;;;12.77;4.68;;;;;;;17.33;86.45;101568.41;4997975;28;20092;-59
2023/10/06 09:49:28;;;;;;;11.48;4.35;;;;;;;17.24;84.24;101547.78;4999450;28;20994;-58
2023/10/06 09:52:01;;;;;;;10.27;4.72;;;;;;;17.13;84.56;101544.09;4982741;28;20156;-58
2023/10/06 09:54:29;;;;;;;8.90;4.20;;;;;;;17.45;83.82;101548.88;4998759;28;20087;-61
2023/10/06 09:56:56;;;;;;;9.80;4.22;;;;;;;17.33;82.14;101552.44;4980448;28;20416;-58
2023/10/06 09:59:25;;;;;;;7.57;3.53;;;;;;;17.45;79.08;101531.09;4984234;28;20708;-60
2023/10/06 10:01:54;;;;;;;7.75;3.50;;;;;;;17.30;80.34;101531.38;5007212;28;20077;-59
2023/10/06 10:04:24;;;;;;;12.15;4.47;;;;;;;17.27;79.82;101532.44;4984471;28;20181;-59
2023/10/06 10:06:52;;;;;;;9.82;3.78;;;;;;;17.46;78.56;101532.78;5001767;28;20076;-57
2023/10/06 10:09:22;;;;;;;15.40;4.05;;;;;;;17.51;79.21;101535.09;4985220;28;20141;-58
2023/10/06 10:12:15;;;;;;;9.70;3.45;;;;;;;17.42;78.85;101525.97;4999577;28;20081;-58
2023/10/06 10:15:01;;;;;;;11.02;3.95;;;;;;;17.18;80.50;101528.63;4951652;28;20574;-60
2023/10/06 10:17:48;;;;;;;7.63;3.92;;;;;;;17.29;81.60;101513.69;4998391;28;20157;-57
2023/10/06 10:20:16;;;;;;;8.75;3.53;;;;;;;17.39;80.95;101515.59;4982753;28;20049;-59
2023/10/06 10:22:43;;;;;;;7.25;3.42;;;;;;;17.67;79.65;101513.53;4999734;28;20148;-57
2023/10/06 10:25:15;;;;;;;10.10;3.85;;;;;;;17.69;78.47;101517.78;5001426;28;20188;-59
2023/10/06 10:28:12;;;;;;;8.43;3.00;;;;;;;17.09;78.14;101508.00;4987096;28;20479;-59
2023/10/06 10:31:31;;;;;;;15.45;3.53;;;;;;;17.18;78.39;101518.00;5001494;28;20054;-55
2023/10/06 10:35:12;;;;;;;6.60;3.13;;;;;;;17.10;78.56;101533.66;5001215;28;20239;-56
2023/10/06 10:41:10;;;;;;;9.55;3.65;;;;;;;17.32;77.86;101501.00;5009228;28;20690;-53
2023/10/06 10:44:28;;;;;;;6.80;3.20;;;;;;;17.32;77.42;101489.53;5011312;28;20100;-58
2023/10/06 10:47:45;;;;;;;7.78;3.28;;;;;;;17.44;76.13;101480.66;5015823;28;20053;-58
2023/10/06 11:10:27;;;;;;;5.95;2.88;;;;;;;17.22;73.79;101481.38;5010311;28;20408;-55
2023/10/06 11:13:57;;;;;;;8.18;2.50;;;;;;;17.35;73.57;101481.31;5003534;28;20048;-59
2023/10/06 11:18:06;;;;;;;8.63;3.25;;;;;;;17.63;72.62;101474.78;5008349;28;20119;-59
2023/10/06 11:21:48;;;;;;;;;;;;;;;17.76;72.31;101485.41;5009179;28;20155;-56
2023/10/06 11:25:32;;;;;;;5.40;2.58;;;;;;;17.67;70.25;101477.09;5007273;28;19921;-56
2023/10/06 11:28:50;;;;;;;7.30;3.28;;;;;;;18.00;69.23;101459.53;5005189;28;20136;-58
2023/10/06 11:41:31;;;;;;;6.75;2.75;;;;;;;18.43;67.00;101443.72;5007965;28;20095;-55
2023/10/06 11:44:52;;;;;;;9.40;2.70;;;;;;;18.08;67.91;101443.81;5010555;28;20056;-58
2023/10/06 11:48:30;;;;;;;5.50;2.70;;;;;;;18.97;68.02;101428.78;5004221;28;20856;-58
2023/10/06 12:01:33;;;;;;;5.97;2.78;;;;;;;20.12;60.20;101393.25;5007421;28;20169;-58
2023/10/06 12:04:51;;;;;;;6.18;2.40;;;;;;;19.97;60.21;101383.91;5009570;28;20100;-58
2023/10/06 12:08:13;;;;;;;9.10;2.58;;;;;;;20.15;58.70;101374.28;5007154;28;20053;-60
2023/10/06 12:14:36;;;;;;;6.35;3.17;;;;;;;19.42;62.55;101343.19;5003876;28;20068;-56
2023/10/06 12:17:54;;;;;;;9.70;2.70;;;;;;;19.94;61.72;101331.56;5005572;28;20054;-54
2023/10/06 12:21:13;;;;;;;5.43;2.53;;;;;;;19.88;61.50;101329.44;5009314;28;20088;-55
2023/10/06 12:27:22;;;;;;;7.65;2.22;;;;;;;18.98;61.76;101327.25;5005803;28;20620;-58
2023/10/06 12:30:40;;;;;;;10.18;2.78;;;;;;;18.69;62.77;101332.34;5007877;28;20049;-59
2023/10/06 12:34:03;;;;;;;11.52;3.47;;;;;;;18.17;65.18;101341.00;4997750;28;21286;-54
2023/10/06 12:46:45;;;;;;;10.25;3.20;;;;;;;17.81;67.82;101342.06;5002789;28;20049;-58
2023/10/06 12:50:05;;;;;;;7.35;2.67;;;;;;;17.93;66.71;101323.31;4991678;28;20467;-58
2023/10/06 12:53:21;;;;;;;8.38;2.92;;;;;;;17.90;66.18;101338.69;5007889;28;20037;-54
2023/10/06 12:59:34;;;;;;;7.65;2.55;;;;;;;17.74;66.56;101317.72;5009568;28;20363;-53